createdAt,value
2023-04-26T00:00:02.306Z,85.95
2023-04-26T00:02:54.619Z,85.98
2023-04-26T00:05:23.056Z,85.81
2023-04-26T00:07:51.467Z,85.26
2023-04-26T00:10:19.629Z,85.18
2023-04-26T00:12:47.708Z,84.52
2023-04-26T00:15:15.954Z,84.83
2023-04-26T00:17:44.291Z,84.50
2023-04-26T00:20:13.701Z,84.26
2023-04-26T00:22:41.944Z,84.17
2023-04-26T00:25:14.573Z,84.05
2023-04-26T00:27:43.033Z,84.29
2023-04-26T00:30:11.787Z,84.11
2023-04-26T00:32:40.242Z,83.77
2023-04-26T00:35:09.190Z,84.37
2023-04-26T00:37:37.386Z,84.38
2023-04-26T00:40:06.835Z,84.20
2023-04-26T00:42:35.116Z,83.72
2023-04-26T00:45:04.130Z,83.51
2023-04-26T00:47:32.600Z,83.46
2023-04-26T00:50:02.108Z,83.26
2023-04-26T00:52:31.921Z,83.24
2023-04-26T00:55:00.193Z,83.55
2023-04-26T00:57:28.774Z,83.40
2023-04-26T00:59:56.984Z,83.24
2023-04-26T01:02:25.813Z,83.15
2023-04-26T01:04:54.223Z,83.73
2023-04-26T01:07:22.401Z,83.73
2023-04-26T01:09:54.772Z,83.72
2023-04-26T01:12:24.472Z,83.77
2023-04-26T01:14:53.374Z,83.18
2023-04-26T01:17:21.483Z,82.95
2023-04-26T01:19:53.829Z,83.25
2023-04-26T01:22:21.890Z,82.84
2023-04-26T01:24:53.042Z,83.22
2023-04-26T01:27:21.640Z,83.34
2023-04-26T01:29:49.809Z,83.54
2023-04-26T01:32:18.201Z,83.76
2023-04-26T01:34:46.666Z,83.83
2023-04-26T01:37:14.820Z,83.98
2023-04-26T01:39:42.838Z,84.05
2023-04-26T01:42:11.046Z,83.55
2023-04-26T01:44:39.752Z,83.05
2023-04-26T01:47:07.821Z,82.69
2023-04-26T01:49:38.968Z,82.48
2023-04-26T01:52:07.033Z,82.52
2023-04-26T01:54:35.110Z,82.21
2023-04-26T01:57:03.178Z,81.98
2023-04-26T01:59:31.252Z,82.03
2023-04-26T02:02:00.782Z,81.99
2023-04-26T02:04:30.107Z,82.21
2023-04-26T02:06:58.332Z,82.67
2023-04-26T02:09:26.419Z,82.11
2023-04-26T02:11:54.720Z,82.68
2023-04-26T02:14:27.381Z,82.85
2023-04-26T02:16:55.438Z,83.27
2023-04-26T02:19:23.680Z,83.71
2023-04-26T02:21:52.808Z,83.74
2023-04-26T02:24:22.218Z,83.69
2023-04-26T02:26:54.852Z,83.05
2023-04-26T02:29:36.203Z,82.63
2023-04-26T02:32:08.796Z,82.95
2023-04-26T02:34:36.918Z,82.86
2023-04-26T02:37:05.552Z,83.37
2023-04-26T02:39:34.006Z,83.55
2023-04-26T02:42:02.438Z,83.42
2023-04-26T02:44:31.295Z,83.96
2023-04-26T02:47:04.051Z,84.68
2023-04-26T02:49:32.265Z,85.21
2023-04-26T02:52:00.539Z,85.63
2023-04-26T02:54:28.920Z,85.31
2023-04-26T02:56:59.032Z,84.79
2023-04-26T02:59:28.646Z,84.59
2023-04-26T03:01:56.992Z,84.44
2023-04-26T03:04:25.329Z,84.71
2023-04-26T03:06:53.450Z,85.76
2023-04-26T03:09:22.468Z,86.51
2023-04-26T03:11:52.401Z,86.69
2023-04-26T03:14:21.169Z,86.97
2023-04-26T03:16:49.296Z,87.42
2023-04-26T03:19:17.661Z,87.58
2023-04-26T03:21:46.114Z,87.97
2023-04-26T03:24:14.407Z,88.52
2023-04-26T03:26:42.468Z,88.42
2023-04-26T03:29:10.733Z,88.61
2023-04-26T03:31:39.254Z,88.64
2023-04-26T03:34:08.093Z,88.78
2023-04-26T03:36:36.466Z,88.76
2023-04-26T03:39:06.303Z,88.96
2023-04-26T03:41:36.917Z,89.31
2023-04-26T03:44:06.091Z,89.22
2023-04-26T03:46:34.086Z,89.35
2023-04-26T03:49:02.169Z,89.13
2023-04-26T03:51:31.474Z,89.12
2023-04-26T03:53:59.746Z,88.77
2023-04-26T03:56:27.820Z,88.74
2023-04-26T03:58:56.036Z,88.48
2023-04-26T04:01:26.223Z,88.32
2023-04-26T04:03:54.802Z,88.71
2023-04-26T04:06:23.082Z,88.17
2023-04-26T04:08:52.096Z,88.47
2023-04-26T04:11:20.673Z,88.44
2023-04-26T04:13:49.108Z,88.42
2023-04-26T04:16:17.389Z,88.32
2023-04-26T04:18:45.688Z,88.28
2023-04-26T04:21:13.658Z,88.04
2023-04-26T04:23:42.550Z,87.51
2023-04-26T04:26:12.773Z,87.66
2023-04-26T04:28:41.734Z,87.29
2023-04-26T04:31:10.177Z,87.70
2023-04-26T04:33:39.263Z,87.37
2023-04-26T04:36:08.535Z,87.30
2023-04-26T04:38:37.618Z,87.24
2023-04-26T04:41:08.639Z,87.36
2023-04-26T04:43:37.565Z,87.59
2023-04-26T04:46:12.681Z,87.51
2023-04-26T04:48:43.301Z,86.93
2023-04-26T04:51:12.124Z,86.58
2023-04-26T04:53:40.356Z,86.74
2023-04-26T04:56:08.995Z,86.44
2023-04-26T04:58:37.394Z,86.61
2023-04-26T05:01:06.254Z,86.90
2023-04-26T05:03:46.679Z,86.51
2023-04-26T05:06:14.955Z,86.09
2023-04-26T05:08:43.117Z,85.89
2023-04-26T05:11:11.382Z,85.95
2023-04-26T05:13:39.523Z,85.64
2023-04-26T05:16:07.944Z,85.55
2023-04-26T05:18:36.017Z,85.24
2023-04-26T05:21:04.354Z,84.86
2023-04-26T05:23:32.425Z,84.31
2023-04-26T05:26:07.870Z,84.03
2023-04-26T05:28:57.962Z,84.64
2023-04-26T05:31:32.030Z,84.62
2023-04-26T05:34:05.878Z,84.15
2023-04-26T05:36:37.945Z,84.17
2023-04-26T05:39:07.151Z,84.12
2023-04-26T05:41:35.109Z,83.75
2023-04-26T05:44:03.599Z,83.40
2023-04-26T05:46:31.629Z,83.26
2023-04-26T05:48:59.636Z,82.86
2023-04-26T05:51:29.355Z,82.94
2023-04-26T05:53:58.044Z,82.48
2023-04-26T05:56:26.922Z,82.49
2023-04-26T05:58:55.001Z,82.86
2023-04-26T06:01:23.175Z,82.63
2023-04-26T06:03:52.694Z,82.47
2023-04-26T06:06:23.617Z,82.25
2023-04-26T06:08:52.301Z,82.32
2023-04-26T06:11:21.669Z,82.33
2023-04-26T06:13:49.889Z,82.38
2023-04-26T06:16:19.012Z,82.25
2023-04-26T06:18:49.361Z,82.24
2023-04-26T06:21:17.489Z,82.46
2023-04-26T06:23:45.468Z,82.64
2023-04-26T06:26:13.716Z,82.30
2023-04-26T06:28:42.422Z,82.00
2023-04-26T06:31:10.940Z,81.87
2023-04-26T06:33:39.109Z,81.51
2023-04-26T06:36:12.021Z,81.71
2023-04-26T06:38:40.411Z,81.57
2023-04-26T06:41:09.334Z,81.12
2023-04-26T06:43:37.882Z,80.47
2023-04-26T06:46:20.129Z,80.45
2023-04-26T06:48:55.460Z,80.34
2023-04-26T06:51:23.537Z,80.05
2023-04-26T06:53:52.982Z,79.80
2023-04-26T06:56:21.810Z,79.97
2023-04-26T06:59:03.823Z,79.81
2023-04-26T07:01:36.305Z,79.78
2023-04-26T07:04:08.142Z,79.64
2023-04-26T07:06:39.009Z,79.83
2023-04-26T07:09:08.032Z,80.22
2023-04-26T07:11:36.112Z,80.21
2023-04-26T07:14:05.361Z,79.67
2023-04-26T07:16:33.505Z,79.45
2023-04-26T07:19:02.116Z,79.81
2023-04-26T07:21:30.042Z,79.93
2023-04-26T07:23:58.466Z,79.29
2023-04-26T07:26:26.923Z,79.25
2023-04-26T07:28:55.628Z,78.81
2023-04-26T07:31:23.622Z,78.81
2023-04-26T07:33:52.624Z,78.11
2023-04-26T07:36:22.375Z,77.87
2023-04-26T07:38:52.197Z,78.06
2023-04-26T07:41:20.398Z,77.87
2023-04-26T07:43:48.887Z,77.82
2023-04-26T07:46:16.985Z,77.73
2023-04-26T07:48:45.025Z,76.99
2023-04-26T07:51:14.117Z,77.10
2023-04-26T07:53:42.523Z,76.93
2023-04-26T07:56:10.891Z,76.13
2023-04-26T07:58:39.790Z,76.00
2023-04-26T08:01:08.798Z,76.25
2023-04-26T08:03:37.176Z,76.40
2023-04-26T08:06:05.904Z,76.18
2023-04-26T08:08:35.366Z,75.97
2023-04-26T08:11:08.132Z,75.74
2023-04-26T08:13:36.392Z,76.27
2023-04-26T08:16:04.770Z,76.02
2023-04-26T08:18:33.645Z,76.35
2023-04-26T08:21:02.508Z,76.43
2023-04-26T08:23:35.832Z,77.09
2023-04-26T08:26:04.228Z,77.11
2023-04-26T08:28:33.219Z,76.58
2023-04-26T08:31:01.443Z,76.00
2023-04-26T08:33:29.626Z,76.55
2023-04-26T08:36:00.214Z,75.95
2023-04-26T08:38:29.646Z,76.24
2023-04-26T08:41:03.103Z,76.55
2023-04-26T08:43:31.372Z,76.11
2023-04-26T08:46:01.596Z,76.19
2023-04-26T08:48:36.312Z,75.18
2023-04-26T08:51:06.288Z,75.12
2023-04-26T08:53:36.360Z,75.37
2023-04-26T08:56:05.394Z,75.05
2023-04-26T08:58:33.531Z,74.84
2023-04-26T09:01:03.649Z,74.18
2023-04-26T09:03:32.102Z,73.96
2023-04-26T09:06:03.847Z,74.40
2023-04-26T09:08:36.937Z,74.29
2023-04-26T09:11:05.208Z,73.98
2023-04-26T09:13:33.372Z,73.71
2023-04-26T09:16:03.497Z,73.74
2023-04-26T09:18:34.337Z,73.25
2023-04-26T09:21:07.912Z,73.11
2023-04-26T09:23:36.159Z,73.46
2023-04-26T09:26:21.684Z,73.32
2023-04-26T09:28:50.963Z,72.96
2023-04-26T09:31:40.503Z,72.65
2023-04-26T09:34:10.768Z,72.88
2023-04-26T09:36:57.284Z,72.77
2023-04-26T09:39:34.299Z,71.72
2023-04-26T09:42:04.139Z,72.03
2023-04-26T09:44:33.630Z,72.26
2023-04-26T09:47:04.479Z,72.18
2023-04-26T09:49:52.942Z,71.78
2023-04-26T09:52:22.439Z,71.16
2023-04-26T09:54:54.712Z,70.18
2023-04-26T09:57:23.700Z,69.50
2023-04-26T09:59:55.563Z,69.86
2023-04-26T10:02:28.559Z,70.09
2023-04-26T10:05:00.198Z,70.72
2023-04-26T10:07:30.537Z,70.38
2023-04-26T10:09:59.011Z,69.35
2023-04-26T10:12:27.606Z,69.71
2023-04-26T10:14:57.760Z,69.13
2023-04-26T10:17:26.025Z,68.75
2023-04-26T10:19:58.362Z,69.03
2023-04-26T10:22:31.402Z,69.03
2023-04-26T10:25:00.254Z,67.86
2023-04-26T10:27:43.980Z,67.13
2023-04-26T10:30:14.166Z,66.79
2023-04-26T10:32:57.634Z,65.98
2023-04-26T10:35:30.961Z,65.40
2023-04-26T10:38:01.942Z,65.47
2023-04-26T10:40:32.730Z,64.52
2023-04-26T10:43:16.260Z,64.34
2023-04-26T10:45:46.408Z,64.38
2023-04-26T10:48:17.646Z,64.57
2023-04-26T10:51:12.507Z,65.10
2023-04-26T10:53:52.267Z,65.15
2023-04-26T10:56:23.941Z,66.08
2023-04-26T11:01:44.163Z,66.61
2023-04-26T11:04:13.225Z,66.34
2023-04-26T11:06:54.538Z,66.28
2023-04-26T11:09:41.764Z,66.30
2023-04-26T11:12:14.810Z,65.44
2023-04-26T11:14:45.638Z,65.11
2023-04-26T11:17:13.935Z,65.21
2023-04-26T11:19:42.124Z,64.41
2023-04-26T11:22:11.015Z,63.05
2023-04-26T11:24:39.235Z,62.29
2023-04-26T11:27:11.470Z,62.95
2023-04-26T11:29:39.956Z,63.44
2023-04-26T11:32:08.369Z,62.74
2023-04-26T11:34:39.335Z,63.24
2023-04-26T11:37:08.233Z,63.82
2023-04-26T11:39:37.242Z,63.50
2023-04-26T11:42:09.740Z,63.33
2023-04-26T11:44:38.813Z,63.53
2023-04-26T11:47:08.112Z,63.51
2023-04-26T11:49:37.887Z,63.62
2023-04-26T11:52:08.280Z,63.74
2023-04-26T11:54:38.189Z,63.64
2023-04-26T11:57:17.922Z,63.34
2023-04-26T11:59:47.004Z,63.02
2023-04-26T12:02:15.217Z,63.49
2023-04-26T12:04:44.681Z,62.84
2023-04-26T12:07:18.700Z,63.06
2023-04-26T12:09:46.850Z,62.34
2023-04-26T12:12:14.921Z,62.32
2023-04-26T12:14:42.941Z,62.09
2023-04-26T12:17:11.431Z,61.58
2023-04-26T12:19:41.352Z,61.80
2023-04-26T12:22:09.701Z,60.79
2023-04-26T12:24:38.047Z,60.53
2023-04-26T12:27:07.895Z,59.28
2023-04-26T12:29:36.648Z,59.21
2023-04-26T12:32:05.179Z,60.38
2023-04-26T12:34:33.517Z,60.53
2023-04-26T12:37:01.598Z,58.11
2023-04-26T12:39:29.910Z,57.39
2023-04-26T12:41:58.031Z,57.06
2023-04-26T12:44:27.026Z,57.00
2023-04-26T12:46:55.116Z,57.06
2023-04-26T12:49:23.057Z,55.84
2023-04-26T12:51:51.347Z,55.50
2023-04-26T12:54:19.646Z,56.34
2023-04-26T12:56:48.618Z,56.66
2023-04-26T12:59:16.824Z,56.50
2023-04-26T13:01:45.172Z,56.25
2023-04-26T13:04:13.630Z,56.91
2023-04-26T13:06:42.034Z,56.38
2023-04-26T13:09:12.985Z,55.94
2023-04-26T13:11:41.448Z,55.09
2023-04-26T13:14:09.627Z,54.77
2023-04-26T13:16:42.419Z,54.53
2023-04-26T13:19:11.328Z,53.92
2023-04-26T13:21:41.139Z,54.18
2023-04-26T13:24:09.155Z,54.76
2023-04-26T13:26:37.677Z,55.43
2023-04-26T13:29:05.692Z,55.20
2023-04-26T13:31:34.136Z,54.87
2023-04-26T13:34:03.776Z,54.94
2023-04-26T13:36:32.925Z,55.21
2023-04-26T13:39:00.896Z,56.31
2023-04-26T13:41:33.396Z,57.22
2023-04-26T13:44:03.421Z,57.51
2023-04-26T13:46:31.627Z,57.49
2023-04-26T13:48:59.946Z,57.08
2023-04-26T13:51:30.703Z,57.17
2023-04-26T13:53:58.953Z,58.06
2023-04-26T13:56:27.260Z,58.33
2023-04-26T13:58:58.736Z,58.72
2023-04-26T14:01:28.046Z,59.21
2023-04-26T14:03:56.426Z,57.39
2023-04-26T14:06:24.801Z,57.44
2023-04-26T14:08:52.982Z,57.73
2023-04-26T14:11:21.493Z,57.81
2023-04-26T14:13:51.793Z,57.77
2023-04-26T14:16:23.095Z,55.49
2023-04-26T14:18:51.967Z,55.42
2023-04-26T14:21:20.076Z,54.06
2023-04-26T14:23:48.206Z,53.34
2023-04-26T14:26:17.199Z,52.05
2023-04-26T14:28:45.488Z,50.10
2023-04-26T14:31:13.870Z,48.30
2023-04-26T14:33:42.467Z,48.15
2023-04-26T14:36:11.010Z,49.36
2023-04-26T14:38:43.112Z,49.70
2023-04-26T14:41:19.000Z,50.56
2023-04-26T14:43:47.495Z,50.66
2023-04-26T14:46:16.036Z,50.61
2023-04-26T14:48:44.720Z,50.75
2023-04-26T14:51:13.298Z,52.16
2023-04-26T14:53:41.407Z,52.31
2023-04-26T14:56:09.841Z,52.82
2023-04-26T14:58:38.117Z,52.32
2023-04-26T15:01:06.631Z,51.69
2023-04-26T15:03:34.972Z,51.78
2023-04-26T15:06:03.552Z,51.74
2023-04-26T15:08:32.953Z,52.09
2023-04-26T15:11:01.058Z,52.01
2023-04-26T15:13:29.017Z,51.56
2023-04-26T15:15:57.000Z,52.00
2023-04-26T15:18:25.081Z,52.18
2023-04-26T15:20:53.420Z,52.70
2023-04-26T15:23:21.584Z,51.99
2023-04-26T15:25:49.564Z,52.03
2023-04-26T15:28:18.000Z,51.63
2023-04-26T15:30:46.428Z,51.89
2023-04-26T15:33:17.111Z,51.72
2023-04-26T15:35:45.528Z,51.91
2023-04-26T15:38:13.602Z,52.61
2023-04-26T15:40:41.670Z,52.78
2023-04-26T15:43:09.626Z,53.33
2023-04-26T15:45:37.614Z,53.62
2023-04-26T15:48:06.049Z,53.85
2023-04-26T15:50:34.065Z,53.18
2023-04-26T15:53:02.158Z,53.28
2023-04-26T15:55:33.386Z,52.63
2023-04-26T15:58:01.665Z,52.48
2023-04-26T16:00:31.372Z,51.97
2023-04-26T16:02:59.646Z,51.03
2023-04-26T16:05:28.041Z,51.78
2023-04-26T16:07:56.418Z,52.53
2023-04-26T16:10:40.423Z,52.35
2023-04-26T16:13:08.753Z,52.97
2023-04-26T16:15:36.912Z,53.91
2023-04-26T16:18:05.044Z,54.11
2023-04-26T16:20:33.292Z,53.80
2023-04-26T16:23:01.575Z,52.72
2023-04-26T16:25:30.045Z,52.99
2023-04-26T16:27:58.319Z,53.72
2023-04-26T16:30:26.428Z,53.51
2023-04-26T16:32:54.539Z,53.27
2023-04-26T16:35:23.126Z,53.23
2023-04-26T16:37:51.618Z,53.74
2023-04-26T16:40:19.982Z,54.03
2023-04-26T16:42:48.259Z,54.79
2023-04-26T16:45:16.787Z,55.59
2023-04-26T16:47:45.061Z,56.33
2023-04-26T16:50:13.210Z,57.38
2023-04-26T16:52:41.587Z,57.64
2023-04-26T16:55:10.094Z,57.31
2023-04-26T16:57:38.327Z,57.67
2023-04-26T17:00:11.610Z,57.66
2023-04-26T17:02:41.060Z,58.31
2023-04-26T17:05:10.386Z,58.08
2023-04-26T17:07:38.811Z,57.79
2023-04-26T17:10:07.484Z,58.80
2023-04-26T17:12:35.509Z,58.98
2023-04-26T17:15:04.956Z,58.62
2023-04-26T17:17:33.312Z,59.95
2023-04-26T17:20:01.301Z,59.96
2023-04-26T17:22:29.425Z,60.92
2023-04-26T17:24:57.461Z,60.80
2023-04-26T17:27:26.962Z,60.93
2023-04-26T17:29:54.999Z,61.01
2023-04-26T17:32:23.246Z,61.25
2023-04-26T17:34:51.372Z,61.75
2023-04-26T17:37:19.568Z,61.64
2023-04-26T17:39:47.634Z,61.69
2023-04-26T17:42:16.019Z,63.42
2023-04-26T17:44:44.014Z,64.99
2023-04-26T17:47:12.158Z,65.86
2023-04-26T17:49:40.229Z,66.57
2023-04-26T17:52:08.262Z,66.62
2023-04-26T17:54:36.887Z,65.65
2023-04-26T17:57:04.917Z,65.24
2023-04-26T17:59:33.130Z,65.16
2023-04-26T18:02:02.946Z,65.13
2023-04-26T18:04:31.543Z,65.49
2023-04-26T18:07:00.244Z,66.05
2023-04-26T18:09:31.950Z,66.11
2023-04-26T18:12:00.251Z,65.91
2023-04-26T18:14:28.734Z,66.08
2023-04-26T18:16:57.963Z,66.24
2023-04-26T18:19:26.427Z,66.52
2023-04-26T18:21:54.487Z,66.59
2023-04-26T18:24:22.551Z,66.06
2023-04-26T18:26:50.729Z,65.85
2023-04-26T18:29:18.719Z,65.79
2023-04-26T18:31:47.032Z,65.88
2023-04-26T18:34:15.464Z,66.07
2023-04-26T18:36:43.532Z,66.46
2023-04-26T18:39:11.708Z,67.16
2023-04-26T18:41:42.550Z,68.04
2023-04-26T18:44:13.279Z,67.90
2023-04-26T18:46:43.150Z,67.70
2023-04-26T18:49:11.567Z,68.14
2023-04-26T18:51:39.852Z,68.67
2023-04-26T18:54:07.999Z,68.94
2023-04-26T18:56:37.707Z,69.15
2023-04-26T18:59:05.808Z,69.22
2023-04-26T19:01:35.293Z,69.10
2023-04-26T19:04:06.863Z,69.21
2023-04-26T19:06:35.058Z,69.36
2023-04-26T19:09:04.553Z,69.67
2023-04-26T19:11:32.851Z,69.68
2023-04-26T19:14:02.418Z,69.67
2023-04-26T19:16:31.012Z,69.86
2023-04-26T19:18:59.281Z,70.29
2023-04-26T19:21:27.882Z,70.55
2023-04-26T19:23:56.046Z,70.87
2023-04-26T19:26:24.533Z,70.99
2023-04-26T19:28:52.621Z,71.07
2023-04-26T19:31:21.040Z,71.26
2023-04-26T19:33:49.255Z,71.62
2023-04-26T19:36:17.631Z,72.12
2023-04-26T19:38:45.858Z,72.03
2023-04-26T19:41:14.224Z,71.98
2023-04-26T19:43:42.363Z,72.55
2023-04-26T19:46:14.497Z,73.42
2023-04-26T19:48:42.647Z,72.82
2023-04-26T19:51:17.845Z,72.51
2023-04-26T19:53:46.221Z,72.34
2023-04-26T19:56:14.505Z,72.32
2023-04-26T19:58:43.085Z,72.50
2023-04-26T20:01:11.345Z,72.57
2023-04-26T20:03:41.588Z,72.63
2023-04-26T20:06:10.524Z,72.95
2023-04-26T20:08:38.651Z,73.02
2023-04-26T20:11:07.334Z,73.16
2023-04-26T20:13:35.434Z,73.38
2023-04-26T20:16:03.822Z,73.24
2023-04-26T20:18:32.162Z,73.36
2023-04-26T20:21:00.442Z,73.23
2023-04-26T20:23:28.611Z,73.35
2023-04-26T20:25:56.886Z,73.44
2023-04-26T20:28:25.914Z,73.57
2023-04-26T20:30:54.072Z,73.38
2023-04-26T20:33:22.546Z,73.30
2023-04-26T20:35:51.774Z,73.47
2023-04-26T20:38:20.834Z,73.58
2023-04-26T20:40:49.070Z,73.59
2023-04-26T20:43:17.182Z,73.59
2023-04-26T20:45:45.393Z,73.68
2023-04-26T20:48:13.532Z,73.61
2023-04-26T20:50:41.730Z,73.54
2023-04-26T20:53:09.881Z,73.92
2023-04-26T20:55:38.153Z,74.02
2023-04-26T20:58:06.534Z,74.27
2023-04-26T21:00:35.833Z,74.12
2023-04-26T21:03:06.154Z,74.06
2023-04-26T21:05:34.697Z,76.33
2023-04-26T21:08:04.048Z,76.87
2023-04-26T21:10:32.541Z,76.68
2023-04-26T21:13:00.992Z,76.05
2023-04-26T21:15:29.632Z,75.49
2023-04-26T21:17:57.823Z,75.29
2023-04-26T21:20:26.298Z,75.49
2023-04-26T21:22:54.428Z,75.79
2023-04-26T21:25:22.852Z,76.30
2023-04-26T21:27:51.604Z,76.72
2023-04-26T21:30:20.357Z,77.06
2023-04-26T21:32:48.690Z,77.01
2023-04-26T21:35:16.843Z,76.59
2023-04-26T21:37:44.954Z,77.68
2023-04-26T21:40:13.499Z,77.88
2023-04-26T21:42:46.605Z,77.15
2023-04-26T21:45:19.663Z,76.98
2023-04-26T21:47:47.673Z,77.59
2023-04-26T21:50:16.017Z,77.61
2023-04-26T21:52:44.017Z,77.78
2023-04-26T21:55:12.164Z,78.28
2023-04-26T21:57:40.338Z,78.49
2023-04-26T22:00:11.723Z,79.08
2023-04-26T22:02:42.968Z,79.11
2023-04-26T22:05:11.337Z,78.88
2023-04-26T22:07:39.379Z,77.89
2023-04-26T22:10:07.960Z,77.52
2023-04-26T22:12:36.242Z,77.69
2023-04-26T22:15:04.763Z,78.18
2023-04-26T22:17:32.915Z,77.51
2023-04-26T22:20:01.270Z,78.55
2023-04-26T22:22:29.658Z,77.70
2023-04-26T22:24:57.935Z,77.59
2023-04-26T22:27:26.012Z,77.06
2023-04-26T22:29:54.185Z,77.48
2023-04-26T22:32:22.450Z,77.64
2023-04-26T22:34:50.935Z,77.45
2023-04-26T22:37:21.364Z,77.25
2023-04-26T22:39:50.107Z,77.42
2023-04-26T22:42:18.118Z,77.20
2023-04-26T22:44:47.007Z,76.97
2023-04-26T22:47:15.086Z,77.13
2023-04-26T22:49:43.166Z,77.47
2023-04-26T22:52:17.328Z,77.17
2023-04-26T22:54:56.503Z,76.71
2023-04-26T22:57:24.582Z,76.54
2023-04-26T22:59:52.748Z,76.63
2023-04-26T23:02:21.140Z,76.36
2023-04-26T23:04:49.540Z,76.10
2023-04-26T23:07:17.734Z,76.39
2023-04-26T23:09:46.142Z,76.44
2023-04-26T23:12:21.609Z,76.35
2023-04-26T23:14:50.815Z,76.18
2023-04-26T23:17:20.601Z,76.36
2023-04-26T23:19:48.639Z,76.54
2023-04-26T23:22:16.746Z,76.24
2023-04-26T23:24:44.841Z,76.15
2023-04-26T23:27:13.133Z,76.11
2023-04-26T23:29:41.187Z,76.04
2023-04-26T23:32:09.463Z,75.92
2023-04-26T23:34:37.532Z,75.86
2023-04-26T23:37:07.224Z,76.26
2023-04-26T23:39:36.507Z,76.22
2023-04-26T23:42:04.928Z,76.10
2023-04-26T23:44:32.999Z,76.01
2023-04-26T23:47:01.169Z,76.03
2023-04-26T23:49:29.450Z,76.16
2023-04-26T23:51:57.519Z,76.17
2023-04-26T23:54:25.588Z,76.28
2023-04-26T23:56:53.664Z,76.78
2023-04-26T23:59:21.740Z,76.53
